Terminal Aerodrome Forecast
Issued by NWS

Home | Current Version | Previous Version | Text Only | Print | Product List | Glossary On
Versions: 1 2 3 4 5 6 7 8 9 10 11 12 13 14
000
FTUS45 KABQ 061133
TAFSAF
TAF
KSAF 061133Z 0612/0712 36006KT P6SM BKN110
     FM061800 32008KT P6SM FEW070 FEW150
     FM062200 06011KT P6SM VCTS SCT070CB BKN120
     FM070000 12017G27KT P6SM VCSH BKN070
     FM071100 12011KT P6SM BKN110=

USA.gov is the U.S. government's official web portal to all federal, state and local government web resources and services.